Time;durP1;ratioP1;P1;durP2;ratioP2;P2;SDS_P1;SDS_P2;PMS_P1;PMS_P2;Temp;Humidity;BMP_temperature;BMP_pressure;BME280_temperature;BME280_humidity;BME280_pressure;Samples;Min_cycle;Max_cycle;Signal;HPM_P1;HPM_P2
2022/07/07 00:01:01;;;;;;;;;;;14.90;99.90;;;;;;5013427;28;19909;-78
2022/07/07 00:03:28;;;;;;;;;;;14.90;99.90;;;;;;5013390;28;19920;-78
2022/07/07 00:05:55;;;;;;;;;;;14.80;99.90;;;;;;5013702;28;19917;-79
2022/07/07 00:08:21;;;;;;;;;;;14.80;99.90;;;;;;5013538;28;19940;-78
2022/07/07 00:10:48;;;;;;;;;;;14.80;99.90;;;;;;5013691;28;19916;-78
2022/07/07 00:13:15;;;;;;;;;;;14.80;99.90;;;;;;5013308;28;20426;-78
2022/07/07 00:15:45;;;;;;;;;;;14.80;99.90;;;;;;5013672;28;20339;-78
2022/07/07 00:18:15;;;;;;;;;;;14.80;99.90;;;;;;5013293;28;19909;-78
2022/07/07 00:20:42;;;;;;;;;;;14.90;99.90;;;;;;5013632;28;19956;-78
2022/07/07 00:23:09;;;;;;;;;;;14.90;99.90;;;;;;5013324;28;20036;-78
2022/07/07 00:25:35;;;;;;;;;;;15.00;99.90;;;;;;5013429;28;19917;-77
2022/07/07 00:28:02;;;;;;;;;;;15.10;99.90;;;;;;5013329;28;20339;-77
2022/07/07 00:30:29;;;;;;;;;;;15.20;99.90;;;;;;5013433;28;19916;-78
2022/07/07 00:32:55;;;;;;;;;;;15.20;99.90;;;;;;5013123;28;19941;-78
2022/07/07 00:35:23;;;;;;;;;;;15.20;99.90;;;;;;5030040;28;19996;-77
2022/07/07 00:37:49;;;;;;;;;;;15.30;99.90;;;;;;5017147;28;20401;-77
2022/07/07 00:40:16;;;;;;;;;;;15.30;99.90;;;;;;5017122;28;19933;-77
2022/07/07 00:42:43;;;;;;;;;;;15.30;99.90;;;;;;5017071;28;19909;-77
2022/07/07 00:45:10;;;;;;;;;;;15.30;99.90;;;;;;5016784;28;20279;-77
2022/07/07 00:47:37;;;;;;;;;;;15.30;99.90;;;;;;5016740;28;19971;-77
2022/07/07 00:50:04;;;;;;;;;;;15.30;99.90;;;;;;5016846;28;19909;-77
2022/07/07 00:52:31;;;;;;;;;;;15.30;99.90;;;;;;5016959;28;19925;-77
2022/07/07 00:54:59;;;;;;;;;;;15.30;99.90;;;;;;5016607;28;20003;-77
2022/07/07 00:57:26;;;;;;;;;;;15.30;99.90;;;;;;5017007;28;19915;-77
2022/07/07 00:59:55;;;;;;;;;;;15.30;99.90;;;;;;5016746;28;20382;-77
2022/07/07 01:02:22;;;;;;;;;;;15.30;99.90;;;;;;5016794;28;20024;-77
2022/07/07 01:04:48;;;;;;;;;;;15.30;99.90;;;;;;5016531;28;20391;-77
2022/07/07 01:07:15;;;;;;;;;;;15.30;99.90;;;;;;5016322;28;19948;-77
2022/07/07 01:09:42;;;;;;;;;;;15.30;99.90;;;;;;5016513;28;20346;-77
2022/07/07 01:12:09;;;;;;;;;;;15.40;99.90;;;;;;5016783;28;19909;-77
2022/07/07 01:14:38;;;;;;;;;;;15.50;99.90;;;;;;5016693;28;20451;-77
2022/07/07 01:17:06;;;;;;;;;;;15.50;99.90;;;;;;5016378;28;19909;-77
2022/07/07 01:19:33;;;;;;;;;;;15.80;99.90;;;;;;5016613;28;19918;-76
2022/07/07 01:22:09;;;;;;;;;;;16.00;99.90;;;;;;5016523;28;19963;-77
2022/07/07 01:24:36;;;;;;;;;;;16.00;99.90;;;;;;5016387;28;19918;-77
2022/07/07 01:27:07;;;;;;;;;;;16.10;99.90;;;;;;5015987;28;20378;-77
2022/07/07 01:29:43;;;;;;;;;;;16.20;99.90;;;;;;5016194;28;19909;-76
2022/07/07 01:32:10;;;;;;;;;;;16.20;99.90;;;;;;5011157;28;19914;-77
2022/07/07 01:34:38;;;;;;;;;;;16.20;99.90;;;;;;4986522;28;19914;-77
2022/07/07 01:37:05;;;;;;;;;;;16.30;99.90;;;;;;4981028;28;19914;-76
2022/07/07 01:39:32;;;;;;;;;;;16.30;99.90;;;;;;4996379;28;19917;-77
2022/07/07 01:41:59;;;;;;;;;;;16.40;99.90;;;;;;4996266;28;19921;-76
2022/07/07 01:44:25;;;;;;;;;;;16.40;99.90;;;;;;4996222;28;19910;-76
2022/07/07 01:46:52;;;;;;;;;;;16.40;99.90;;;;;;4995313;28;19918;-76
2022/07/07 01:49:19;;;;;;;;;;;16.50;99.90;;;;;;4996366;28;19914;-77
2022/07/07 01:51:46;;;;;;;;;;;16.40;99.90;;;;;;4996088;28;20005;-76
2022/07/07 01:54:12;;;;;;;;;;;16.50;99.90;;;;;;4995956;28;20328;-76
2022/07/07 01:56:39;;;;;;;;;;;16.50;99.90;;;;;;4996121;28;20246;-77
2022/07/07 01:59:06;;;;;;;;;;;16.60;99.90;;;;;;4995862;28;19914;-76
2022/07/07 02:01:33;;;;;;;;;;;16.60;99.90;;;;;;4996019;28;20337;-76
2022/07/07 02:04:00;;;;;;;;;;;16.50;99.90;;;;;;5001626;28;19957;-76
2022/07/07 02:06:26;;;;;;;;;;;16.50;99.90;;;;;;5015555;28;19921;-76
2022/07/07 02:08:53;;;;;;;;;;;16.40;99.90;;;;;;5015330;28;20348;-76
2022/07/07 02:11:20;;;;;;;;;;;16.50;99.90;;;;;;5015250;28;19996;-76
2022/07/07 02:13:48;;;;;;;;;;;16.40;99.90;;;;;;5015201;28;20265;-76
2022/07/07 02:16:15;;;;;;;;;;;16.40;99.90;;;;;;5015222;28;19933;-76
2022/07/07 02:18:42;;;;;;;;;;;16.40;99.90;;;;;;5015057;28;19909;-76
2022/07/07 02:21:10;;;;;;;;;;;16.50;99.90;;;;;;5015012;28;19955;-77
2022/07/07 02:23:37;;;;;;;;;;;16.50;99.90;;;;;;5015198;28;19932;-76
2022/07/07 02:26:04;;;;;;;;;;;16.50;99.90;;;;;;5013870;28;20382;-76
2022/07/07 02:28:31;;;;;;;;;;;16.50;99.90;;;;;;5014014;28;20318;-76
2022/07/07 02:30:58;;;;;;;;;;;16.50;99.90;;;;;;5013488;28;20537;-76
2022/07/07 02:33:25;;;;;;;;;;;16.50;99.90;;;;;;5013681;28;19909;-76
2022/07/07 02:35:53;;;;;;;;;;;16.50;99.90;;;;;;5012207;28;20316;-76
2022/07/07 02:38:20;;;;;;;;;;;16.50;99.90;;;;;;5013703;28;19941;-77
2022/07/07 02:40:46;;;;;;;;;;;16.60;99.90;;;;;;5013520;28;19917;-76
2022/07/07 02:43:13;;;;;;;;;;;16.60;99.90;;;;;;5013263;28;19960;-76
2022/07/07 02:45:40;;;;;;;;;;;16.80;99.90;;;;;;5013370;28;20024;-76
2022/07/07 02:48:08;;;;;;;;;;;17.00;99.90;;;;;;5013497;28;19956;-76
2022/07/07 02:50:35;;;;;;;;;;;17.00;99.90;;;;;;5013523;28;19924;-76
2022/07/07 02:53:02;;;;;;;;;;;17.10;99.90;;;;;;5013079;28;19913;-76
2022/07/07 02:55:30;;;;;;;;;;;17.00;99.90;;;;;;5005494;28;20398;-76
2022/07/07 02:57:57;;;;;;;;;;;17.00;99.90;;;;;;4980526;28;19919;-75
2022/07/07 03:00:24;;;;;;;;;;;17.00;99.90;;;;;;4973661;28;20048;-75
2022/07/07 03:02:51;;;;;;;;;;;17.00;99.90;;;;;;4973949;28;20040;-75
2022/07/07 03:05:17;;;;;;;;;;;17.10;99.90;;;;;;4989907;28;19938;-76
2022/07/07 03:07:44;;;;;;;;;;;17.10;99.90;;;;;;4993271;28;20360;-74
2022/07/07 03:10:11;;;;;;;;;;;17.10;99.90;;;;;;4993210;28;19986;-76
2022/07/07 03:12:38;;;;;;;;;;;17.00;99.90;;;;;;4993909;28;19960;-76
2022/07/07 03:15:05;;;;;;;;;;;17.00;99.90;;;;;;4992846;28;19917;-76
2022/07/07 03:17:31;;;;;;;;;;;16.90;99.90;;;;;;4994608;28;20008;-76
2022/07/07 03:19:58;;;;;;;;;;;16.90;99.90;;;;;;5012739;28;19913;-76
2022/07/07 03:22:25;;;;;;;;;;;16.80;99.90;;;;;;5012806;28;19963;-74
2022/07/07 03:24:51;;;;;;;;;;;16.80;99.90;;;;;;5012382;28;19910;-76
2022/07/07 03:27:18;;;;;;;;;;;16.80;99.90;;;;;;5012495;28;19921;-76
2022/07/07 03:29:45;;;;;;;;;;;16.80;99.90;;;;;;5012649;28;19913;-76
2022/07/07 03:32:11;;;;;;;;;;;16.80;99.90;;;;;;5012502;28;19916;-74
2022/07/07 03:34:38;;;;;;;;;;;16.80;99.90;;;;;;5012609;28;19999;-75
2022/07/07 03:37:05;;;;;;;;;;;16.80;99.90;;;;;;5012184;28;19914;-75
2022/07/07 03:39:31;;;;;;;;;;;16.90;99.90;;;;;;5012519;28;19916;-75
2022/07/07 03:41:58;;;;;;;;;;;16.90;99.90;;;;;;5012255;28;19923;-75
2022/07/07 03:44:25;;;;;;;;;;;17.00;99.90;;;;;;5012369;28;20356;-75
2022/07/07 03:46:52;;;;;;;;;;;17.00;99.90;;;;;;5011862;28;19918;-75
2022/07/07 03:49:18;;;;;;;;;;;17.00;99.90;;;;;;4994479;28;19963;-74
2022/07/07 03:51:45;;;;;;;;;;;16.90;99.90;;;;;;5011982;28;19909;-75
2022/07/07 03:54:12;;;;;;;;;;;16.90;99.90;;;;;;5012377;28;19909;-75
2022/07/07 03:56:40;;;;;;;;;;;16.90;99.90;;;;;;5012262;28;20287;-74
2022/07/07 03:59:06;;;;;;;;;;;16.90;99.90;;;;;;5011625;28;20279;-75
2022/07/07 04:01:33;;;;;;;;;;;17.00;99.90;;;;;;5012024;28;19917;-74
2022/07/07 04:04:00;;;;;;;;;;;16.80;99.90;;;;;;5011924;28;19945;-74
2022/07/07 04:06:30;;;;;;;;;;;16.70;99.90;;;;;;5011993;28;19918;-74
2022/07/07 04:08:57;;;;;;;;;;;16.60;99.90;;;;;;5011676;28;20418;-74
2022/07/07 04:11:23;;;;;;;;;;;16.60;99.90;;;;;;5017513;28;19948;-75
2022/07/07 04:13:50;;;;;;;;;;;16.60;99.90;;;;;;5018100;28;19976;-75
2022/07/07 04:16:17;;;;;;;;;;;16.50;99.90;;;;;;5018095;28;19916;-75
2022/07/07 04:18:43;;;;;;;;;;;16.50;99.90;;;;;;5018128;28;19910;-75
2022/07/07 04:21:10;;;;;;;;;;;16.50;99.90;;;;;;5018117;28;19909;-74
2022/07/07 04:23:37;;;;;;;;;;;16.50;99.90;;;;;;5018298;28;19909;-75
2022/07/07 04:26:04;;;;;;;;;;;16.50;99.90;;;;;;5018325;28;19971;-74
2022/07/07 04:28:31;;;;;;;;;;;16.40;99.90;;;;;;5018498;28;20006;-75
2022/07/07 04:30:57;;;;;;;;;;;16.40;99.90;;;;;;5018204;28;19910;-74
2022/07/07 04:33:24;;;;;;;;;;;16.40;99.90;;;;;;5018235;28;19909;-74
2022/07/07 04:35:51;;;;;;;;;;;16.40;99.90;;;;;;5018230;28;20229;-74
2022/07/07 04:38:17;;;;;;;;;;;16.40;99.90;;;;;;5018460;28;19952;-74
2022/07/07 04:40:44;;;;;;;;;;;16.30;99.90;;;;;;5017966;28;19909;-74
2022/07/07 04:43:11;;;;;;;;;;;16.20;99.90;;;;;;5018056;28;19914;-76
2022/07/07 04:45:38;;;;;;;;;;;16.20;99.90;;;;;;5018020;28;19917;-75
2022/07/07 04:48:04;;;;;;;;;;;16.00;99.90;;;;;;5018017;28;19996;-75
2022/07/07 04:50:31;;;;;;;;;;;16.00;99.90;;;;;;5018046;28;19917;-75
2022/07/07 04:52:58;;;;;;;;;;;15.90;99.90;;;;;;5017789;28;19937;-74
2022/07/07 04:55:25;;;;;;;;;;;15.80;99.90;;;;;;5018105;28;19920;-74
2022/07/07 04:57:51;;;;;;;;;;;15.80;99.90;;;;;;5017983;28;20005;-74
2022/07/07 05:00:18;;;;;;;;;;;15.80;99.90;;;;;;5018026;28;20283;-74
2022/07/07 05:02:45;;;;;;;;;;;15.70;99.90;;;;;;5017773;28;20383;-74
2022/07/07 05:05:12;;;;;;;;;;;15.60;99.90;;;;;;5017382;28;19925;-74
2022/07/07 05:07:38;;;;;;;;;;;15.50;99.90;;;;;;5017736;28;20287;-74
2022/07/07 05:10:05;;;;;;;;;;;15.50;99.90;;;;;;5017945;28;19921;-74
2022/07/07 05:12:32;;;;;;;;;;;15.40;99.90;;;;;;5017836;28;20335;-75
2022/07/07 05:14:59;;;;;;;;;;;15.40;99.90;;;;;;5017783;28;19909;-74
2022/07/07 05:17:26;;;;;;;;;;;15.40;99.90;;;;;;5017725;28;19917;-74
2022/07/07 05:19:52;;;;;;;;;;;15.40;99.90;;;;;;5017845;28;19910;-74
2022/07/07 05:22:19;;;;;;;;;;;15.30;99.90;;;;;;5014746;28;19959;-74
2022/07/07 05:24:45;;;;;;;;;;;15.30;99.90;;;;;;5014718;28;19918;-74
2022/07/07 05:27:12;;;;;;;;;;;15.30;99.90;;;;;;5014497;28;19925;-73
2022/07/07 05:29:39;;;;;;;;;;;15.20;99.90;;;;;;5014498;28;20326;-74
2022/07/07 05:32:06;;;;;;;;;;;15.20;99.90;;;;;;5014455;28;20000;-74
2022/07/07 05:34:32;;;;;;;;;;;15.10;99.90;;;;;;5014470;28;19910;-75
2022/07/07 05:36:59;;;;;;;;;;;15.10;99.90;;;;;;5014348;28;19916;-74
2022/07/07 05:39:28;;;;;;;;;;;15.00;99.90;;;;;;5014543;28;19914;-75
2022/07/07 05:41:55;;;;;;;;;;;15.10;99.90;;;;;;5014356;28;19980;-74
2022/07/07 05:44:21;;;;;;;;;;;15.10;99.90;;;;;;5014298;28;19909;-75
2022/07/07 05:46:48;;;;;;;;;;;15.10;99.90;;;;;;5029020;28;20409;-75
2022/07/07 05:49:15;;;;;;;;;;;15.10;99.90;;;;;;5014068;28;20003;-74
2022/07/07 05:51:41;;;;;;;;;;;15.10;99.90;;;;;;5014242;28;20004;-74
2022/07/07 05:54:08;;;;;;;;;;;15.00;99.90;;;;;;5013863;28;19914;-75
2022/07/07 05:56:35;;;;;;;;;;;15.00;99.90;;;;;;5014237;28;20335;-74
2022/07/07 05:59:01;;;;;;;;;;;15.00;99.90;;;;;;5013948;28;19909;-74
2022/07/07 06:01:28;;;;;;;;;;;15.00;99.90;;;;;;5013843;28;19913;-75
2022/07/07 06:03:55;;;;;;;;;;;15.00;99.90;;;;;;5013857;28;19920;-74
2022/07/07 06:06:22;;;;;;;;;;;15.00;99.90;;;;;;5013860;28;19923;-74
2022/07/07 06:08:49;;;;;;;;;;;14.90;99.90;;;;;;5013967;28;19929;-75
2022/07/07 06:11:15;;;;;;;;;;;14.80;99.90;;;;;;5013705;28;19914;-76
2022/07/07 06:13:42;;;;;;;;;;;14.80;99.90;;;;;;5013756;28;19997;-76
2022/07/07 06:16:09;;;;;;;;;;;14.80;99.90;;;;;;5013684;28;19914;-75
2022/07/07 06:18:35;;;;;;;;;;;14.80;99.90;;;;;;5013977;28;19909;-75
2022/07/07 06:21:02;;;;;;;;;;;14.70;99.90;;;;;;5013466;28;20282;-75
2022/07/07 06:23:29;;;;;;;;;;;14.70;99.90;;;;;;5013885;28;19961;-76
2022/07/07 06:25:55;;;;;;;;;;;14.70;99.90;;;;;;5013401;28;19957;-76
2022/07/07 06:28:22;;;;;;;;;;;14.70;99.90;;;;;;5013757;28;19921;-76
2022/07/07 06:30:49;;;;;;;;;;;14.70;99.90;;;;;;5013569;28;19913;-76
2022/07/07 06:33:15;;;;;;;;;;;14.70;99.90;;;;;;5013273;28;19917;-76
2022/07/07 06:35:42;;;;;;;;;;;14.70;99.90;;;;;;5013445;28;19910;-76
2022/07/07 06:38:09;;;;;;;;;;;14.70;99.90;;;;;;5013442;28;20070;-76
2022/07/07 06:40:35;;;;;;;;;;;14.60;99.90;;;;;;5013486;28;19910;-75
2022/07/07 06:43:02;;;;;;;;;;;14.60;99.90;;;;;;5013091;28;19932;-76
2022/07/07 06:45:30;;;;;;;;;;;14.60;99.90;;;;;;5013013;28;20000;-76
2022/07/07 06:47:57;;;;;;;;;;;14.60;99.90;;;;;;5013215;28;19932;-76
2022/07/07 06:50:24;;;;;;;;;;;14.60;99.90;;;;;;5013123;28;19925;-76
2022/07/07 06:52:50;;;;;;;;;;;14.50;99.90;;;;;;5010403;28;19956;-76
2022/07/07 06:55:17;;;;;;;;;;;14.50;99.90;;;;;;5011191;28;19914;-76
2022/07/07 06:57:44;;;;;;;;;;;14.50;99.90;;;;;;5011182;28;19988;-76
2022/07/07 07:00:11;;;;;;;;;;;14.50;99.90;;;;;;5011161;28;20422;-76
2022/07/07 07:02:41;;;;;;;;;;;14.40;99.90;;;;;;5011180;28;19920;-76
2022/07/07 07:05:08;;;;;;;;;;;14.40;99.90;;;;;;5010240;28;20024;-76
2022/07/07 07:07:35;;;;;;;;;;;14.30;99.90;;;;;;5011093;28;19921;-75
2022/07/07 07:10:05;;;;;;;;;;;14.30;99.90;;;;;;5010433;28;20214;-76
2022/07/07 07:12:32;;;;;;;;;;;14.30;99.90;;;;;;5010995;28;20007;-76
2022/07/07 07:14:59;;;;;;;;;;;14.20;99.90;;;;;;5013037;28;19943;-75
2022/07/07 07:17:25;;;;;;;;;;;14.20;99.90;;;;;;5010716;28;19909;-75
2022/07/07 07:19:52;;;;;;;;;;;14.20;99.90;;;;;;5011622;28;19917;-76
2022/07/07 07:22:19;;;;;;;;;;;14.20;99.90;;;;;;5010826;28;19916;-75
2022/07/07 07:24:46;;;;;;;;;;;14.20;99.90;;;;;;5010715;28;19916;-76
2022/07/07 07:27:12;;;;;;;;;;;14.10;99.90;;;;;;5010186;28;20379;-75
2022/07/07 07:29:39;;;;;;;;;;;14.10;99.90;;;;;;5010457;28;19945;-75
2022/07/07 07:32:06;;;;;;;;;;;14.10;99.90;;;;;;5010070;28;19914;-75
2022/07/07 07:34:33;;;;;;;;;;;14.10;99.90;;;;;;5010543;28;19924;-75
2022/07/07 07:37:00;;;;;;;;;;;14.10;99.90;;;;;;5010081;28;20348;-76
2022/07/07 07:39:27;;;;;;;;;;;14.00;99.90;;;;;;5009987;28;19913;-76
2022/07/07 07:41:54;;;;;;;;;;;14.00;99.90;;;;;;5010082;28;19925;-75
2022/07/07 07:47:05;;;;;;;;;;;14.00;99.90;;;;;;5009934;28;19992;-75
2022/07/07 07:49:32;;;;;;;;;;;14.00;99.90;;;;;;5009907;28;19951;-76
2022/07/07 07:51:59;;;;;;;;;;;13.90;99.90;;;;;;5010100;28;19914;-76
2022/07/07 07:54:25;;;;;;;;;;;13.90;99.90;;;;;;5010053;28;19913;-76
2022/07/07 07:56:52;;;;;;;;;;;13.90;99.90;;;;;;5007834;28;19917;-76
2022/07/07 07:59:19;;;;;;;;;;;13.90;99.90;;;;;;5009871;28;19929;-76
2022/07/07 08:01:45;;;;;;;;;;;13.90;99.90;;;;;;5009947;28;19914;-76
2022/07/07 08:04:12;;;;;;;;;;;13.90;99.90;;;;;;5009555;28;19925;-74
2022/07/07 08:06:39;;;;;;;;;;;13.90;99.90;;;;;;5009570;28;19925;-75
2022/07/07 08:09:06;;;;;;;;;;;13.90;99.90;;;;;;5009834;28;19969;-75
2022/07/07 08:11:32;;;;;;;;;;;13.90;99.90;;;;;;5009434;28;20315;-75
2022/07/07 08:13:59;;;;;;;;;;;13.80;99.90;;;;;;5009816;28;20355;-74
2022/07/07 08:16:26;;;;;;;;;;;13.90;99.90;;;;;;5009831;28;19909;-76
2022/07/07 08:18:52;;;;;;;;;;;13.80;99.90;;;;;;5009367;28;19921;-78
2022/07/07 08:21:19;;;;;;;;;;;13.80;99.90;;;;;;5009653;28;19984;-76
2022/07/07 08:23:46;;;;;;;;;;;13.90;99.90;;;;;;5009556;28;19925;-77
2022/07/07 08:26:13;;;;;;;;;;;13.90;99.90;;;;;;5009453;28;19913;-76
2022/07/07 08:28:40;;;;;;;;;;;13.90;99.90;;;;;;5009878;28;19913;-76
2022/07/07 08:31:07;;;;;;;;;;;13.80;99.90;;;;;;5009152;28;19960;-76
2022/07/07 08:33:35;;;;;;;;;;;13.80;99.90;;;;;;5009636;28;20260;-76
2022/07/07 08:36:01;;;;;;;;;;;13.80;99.90;;;;;;5009303;28;20012;-76
2022/07/07 08:38:28;;;;;;;;;;;13.70;99.90;;;;;;5009672;28;19975;-76
2022/07/07 08:40:55;;;;;;;;;;;13.80;99.90;;;;;;5009516;28;20372;-76
2022/07/07 08:43:21;;;;;;;;;;;13.80;99.90;;;;;;5009389;28;19914;-76
2022/07/07 08:45:48;;;;;;;;;;;13.70;99.90;;;;;;5007573;28;20091;-76
2022/07/07 08:48:15;;;;;;;;;;;13.70;99.90;;;;;;5009045;28;19909;-76
2022/07/07 08:50:42;;;;;;;;;;;13.70;99.90;;;;;;5009887;28;19910;-76
2022/07/07 08:53:08;;;;;;;;;;;13.60;99.90;;;;;;5009396;28;19967;-76
2022/07/07 08:55:35;;;;;;;;;;;13.60;99.90;;;;;;5009423;28;20013;-76
2022/07/07 08:58:02;;;;;;;;;;;13.50;99.90;;;;;;5011827;28;19992;-76
2022/07/07 09:00:29;;;;;;;;;;;13.50;99.90;;;;;;5013188;28;19909;-76
2022/07/07 09:02:56;;;;;;;;;;;13.50;99.90;;;;;;5012051;28;19910;-76
2022/07/07 09:05:23;;;;;;;;;;;13.50;99.90;;;;;;5013449;28;19922;-76
2022/07/07 09:07:51;;;;;;;;;;;13.50;99.90;;;;;;5015048;28;19948;-76
2022/07/07 09:10:28;;;;;;;;;;;13.50;99.90;;;;;;5014961;28;20116;-76
2022/07/07 09:12:55;;;;;;;;;;;13.40;99.90;;;;;;5014780;28;20057;-76
2022/07/07 09:15:22;;;;;;;;;;;13.50;99.90;;;;;;5014874;28;20024;-76
2022/07/07 09:17:49;;;;;;;;;;;13.40;99.90;;;;;;5014289;28;19913;-75
2022/07/07 09:20:16;;;;;;;;;;;13.40;99.90;;;;;;5014355;28;19909;-75
2022/07/07 09:22:44;;;;;;;;;;;13.40;99.90;;;;;;5014787;28;19941;-75
2022/07/07 09:25:11;;;;;;;;;;;13.30;99.90;;;;;;5014512;28;19993;-76
2022/07/07 09:27:56;;;;;;;;;;;13.30;99.90;;;;;;5014900;28;19921;-76
2022/07/07 09:30:27;;;;;;;;;;;13.20;99.90;;;;;;5014822;28;20028;-76
2022/07/07 09:32:54;;;;;;;;;;;13.20;99.90;;;;;;5014413;28;19910;-77
2022/07/07 09:38:13;;;;;;;;;;;13.20;99.90;;;;;;5013882;28;19924;-76
2022/07/07 09:38:13;;;;;;;;;;;13.20;99.90;;;;;;5014702;28;19932;-77
2022/07/07 09:41:01;;;;;;;;;;;13.10;99.90;;;;;;5014571;28;19933;-76
2022/07/07 09:43:30;;;;;;;;;;;13.10;99.90;;;;;;5014384;28;19925;-76
2022/07/07 09:46:12;;;;;;;;;;;13.10;99.90;;;;;;5014390;28;20021;-76
2022/07/07 09:48:40;;;;;;;;;;;13.00;99.90;;;;;;5014271;28;20240;-73
2022/07/07 09:51:13;;;;;;;;;;;13.00;99.90;;;;;;5013997;28;19909;-74
2022/07/07 09:53:52;;;;;;;;;;;12.90;99.90;;;;;;5013991;28;19914;-75
2022/07/07 09:56:26;;;;;;;;;;;12.90;99.90;;;;;;5013940;28;19968;-75
2022/07/07 09:58:53;;;;;;;;;;;12.80;99.90;;;;;;5013926;28;19951;-76
2022/07/07 10:01:24;;;;;;;;;;;12.80;99.90;;;;;;5013833;28;20324;-76
2022/07/07 10:03:54;;;;;;;;;;;12.80;99.90;;;;;;5013854;28;20259;-75
2022/07/07 10:06:21;;;;;;;;;;;12.80;99.90;;;;;;5013891;28;20012;-75
2022/07/07 10:08:50;;;;;;;;;;;12.80;99.90;;;;;;5013463;28;19909;-76
2022/07/07 10:11:18;;;;;;;;;;;12.80;99.90;;;;;;5013754;28;19917;-74
2022/07/07 10:13:48;;;;;;;;;;;12.80;99.90;;;;;;5013866;28;19917;-75
2022/07/07 10:16:15;;;;;;;;;;;12.70;99.90;;;;;;5013526;28;20385;-76
2022/07/07 10:18:42;;;;;;;;;;;12.60;99.90;;;;;;5013747;28;19909;-74
2022/07/07 10:21:09;;;;;;;;;;;12.60;99.90;;;;;;5013436;28;20356;-74
2022/07/07 10:23:36;;;;;;;;;;;12.60;99.90;;;;;;5013711;28;19910;-74
2022/07/07 10:26:07;;;;;;;;;;;12.50;99.90;;;;;;5013717;28;20283;-75
2022/07/07 10:29:02;;;;;;;;;;;12.50;99.90;;;;;;5013459;28;19909;-75
2022/07/07 10:31:30;;;;;;;;;;;12.50;99.90;;;;;;5004748;28;19921;-75
2022/07/07 10:34:04;;;;;;;;;;;12.40;99.90;;;;;;5013576;28;19909;-74
2022/07/07 10:36:54;;;;;;;;;;;12.50;99.90;;;;;;5013431;28;19932;-74
2022/07/07 10:39:25;;;;;;;;;;;12.50;99.90;;;;;;5008021;28;19910;-75
2022/07/07 10:41:55;;;;;;;;;;;12.40;99.90;;;;;;5013301;28;20371;-74
2022/07/07 10:44:22;;;;;;;;;;;12.50;99.90;;;;;;5013159;28;19949;-74
2022/07/07 10:47:18;;;;;;;;;;;12.50;99.90;;;;;;5013244;28;20272;-76
2022/07/07 10:49:52;;;;;;;;;;;12.50;99.90;;;;;;5004241;28;19932;-76
2022/07/07 10:52:21;;;;;;;;;;;12.40;99.90;;;;;;5013287;28;20012;-75
2022/07/07 10:54:50;;;;;;;;;;;12.30;99.90;;;;;;5013078;28;19910;-76
2022/07/07 10:57:18;;;;;;;;;;;12.30;99.90;;;;;;5013103;28;20306;-75
2022/07/07 11:00:01;;;;;;;;;;;12.30;99.90;;;;;;5012893;28;19916;-76
2022/07/07 11:02:30;;;;;;;;;;;12.20;99.90;;;;;;5011436;28;20383;-76
2022/07/07 11:04:58;;;;;;;;;;;12.20;99.90;;;;;;5012758;28;19964;-75
2022/07/07 11:07:25;;;;;;;;;;;12.10;99.90;;;;;;5011564;28;19924;-75
2022/07/07 11:09:59;;;;;;;;;;;12.10;99.90;;;;;;5012867;28;20391;-74
2022/07/07 11:12:35;;;;;;;;;;;12.10;99.90;;;;;;4994386;28;19960;-74
2022/07/07 11:15:32;;;;;;;;;;;12.00;99.90;;;;;;4992840;28;19910;-75
2022/07/07 11:18:00;;;;;;;;;;;12.00;99.90;;;;;;4993133;28;19914;-74
2022/07/07 11:20:29;;;;;;;;;;;12.00;99.90;;;;;;4992141;28;19910;-75
2022/07/07 11:23:12;;;;;;;;;;;12.00;99.90;;;;;;4992373;28;19910;-75
2022/07/07 11:25:39;;;;;;;;;;;12.00;99.90;;;;;;4992894;28;19913;-75
2022/07/07 11:28:07;;;;;;;;;;;11.90;99.90;;;;;;4992892;28;19996;-74
2022/07/07 11:30:34;;;;;;;;;;;11.90;99.90;;;;;;4992804;28;19926;-75
2022/07/07 11:33:02;;;;;;;;;;;11.90;99.90;;;;;;4992671;28;19964;-74
2022/07/07 11:35:35;;;;;;;;;;;11.80;99.90;;;;;;4992743;28;20269;-76
2022/07/07 11:38:05;;;;;;;;;;;11.70;99.90;;;;;;4992093;28;20261;-76
2022/07/07 11:40:32;;;;;;;;;;;11.70;99.90;;;;;;4992612;28;19910;-76
2022/07/07 11:43:03;;;;;;;;;;;11.70;99.90;;;;;;4992470;28;19914;-76
2022/07/07 11:45:31;;;;;;;;;;;11.80;99.90;;;;;;4992512;28;20347;-76
2022/07/07 11:48:07;;;;;;;;;;;11.70;99.90;;;;;;4992678;28;19917;-76
2022/07/07 11:50:35;;;;;;;;;;;11.70;99.90;;;;;;4992590;28;19910;-76
2022/07/07 11:53:03;;;;;;;;;;;11.70;99.90;;;;;;4992020;28;19941;-76
2022/07/07 11:55:30;;;;;;;;;;;11.70;99.90;;;;;;4992518;28;19918;-75
2022/07/07 11:58:00;;;;;;;;;;;11.70;99.90;;;;;;4992568;28;19945;-76
2022/07/07 12:00:27;;;;;;;;;;;11.60;99.90;;;;;;4992247;28;20275;-76
2022/07/07 12:02:56;;;;;;;;;;;11.70;99.90;;;;;;4992307;28;20005;-76
2022/07/07 12:05:24;;;;;;;;;;;11.60;99.90;;;;;;4992332;28;19933;-76
2022/07/07 12:07:57;;;;;;;;;;;11.60;99.90;;;;;;4991835;28;20017;-76
2022/07/07 12:10:44;;;;;;;;;;;11.60;99.90;;;;;;4992462;28;20360;-75
2022/07/07 12:13:12;;;;;;;;;;;11.60;99.90;;;;;;4985146;28;20530;-76
2022/07/07 12:15:42;;;;;;;;;;;11.50;99.90;;;;;;4992237;28;19914;-75
2022/07/07 12:18:10;;;;;;;;;;;11.50;99.90;;;;;;4992398;28;19910;-74
2022/07/07 12:20:37;;;;;;;;;;;11.50;99.90;;;;;;4992171;28;20364;-74
2022/07/07 12:23:18;;;;;;;;;;;11.50;99.90;;;;;;4991769;28;19909;-76
2022/07/07 12:25:44;;;;;;;;;;;11.50;99.90;;;;;;4992318;28;19976;-76
2022/07/07 12:28:11;;;;;;;;;;;11.50;99.90;;;;;;4992274;28;19976;-76
2022/07/07 12:30:50;;;;;;;;;;;11.50;99.90;;;;;;4992539;28;20372;-75
2022/07/07 12:33:26;;;;;;;;;;;11.40;99.90;;;;;;4996135;28;19910;-76
2022/07/07 12:35:57;;;;;;;;;;;11.40;99.90;;;;;;4995606;28;19910;-75
2022/07/07 12:38:34;;;;;;;;;;;11.40;99.90;;;;;;4996017;28;19910;-75
2022/07/07 12:41:01;;;;;;;;;;;11.40;99.90;;;;;;4996219;28;20356;-76
2022/07/07 12:43:32;;;;;;;;;;;11.40;99.90;;;;;;4997482;28;19916;-76
2022/07/07 12:46:16;;;;;;;;;;;11.40;99.90;;;;;;4997584;28;19922;-76
2022/07/07 12:48:43;;;;;;;;;;;11.40;99.90;;;;;;4997408;28;20431;-76
2022/07/07 12:51:10;;;;;;;;;;;11.30;99.90;;;;;;4996773;28;20009;-76
2022/07/07 12:53:37;;;;;;;;;;;11.30;99.90;;;;;;4997264;28;19910;-76
2022/07/07 12:56:07;;;;;;;;;;;11.30;99.90;;;;;;4997354;28;19910;-76
2022/07/07 12:58:41;;;;;;;;;;;11.30;99.90;;;;;;4997185;28;20287;-76
2022/07/07 13:01:08;;;;;;;;;;;11.30;99.90;;;;;;4997150;28;19917;-76
2022/07/07 13:03:35;;;;;;;;;;;11.30;99.90;;;;;;4997026;28;19974;-76
2022/07/07 13:06:02;;;;;;;;;;;11.30;99.90;;;;;;4996790;28;20279;-76
2022/07/07 13:08:31;;;;;;;;;;;11.30;99.90;;;;;;4997203;28;19936;-76
2022/07/07 13:10:58;;;;;;;;;;;11.30;99.90;;;;;;4997016;28;19914;-75
2022/07/07 13:13:25;;;;;;;;;;;11.30;99.90;;;;;;4997057;28;19914;-75
2022/07/07 13:15:52;;;;;;;;;;;11.30;99.90;;;;;;4996887;28;20340;-75
2022/07/07 13:18:25;;;;;;;;;;;11.20;99.90;;;;;;4997097;28;19910;-75
2022/07/07 13:20:53;;;;;;;;;;;11.10;99.90;;;;;;4996950;28;19968;-75
2022/07/07 13:23:23;;;;;;;;;;;11.10;99.90;;;;;;4996935;28;19940;-75
2022/07/07 13:25:50;;;;;;;;;;;11.10;99.90;;;;;;4996794;28;19910;-76
2022/07/07 13:28:17;;;;;;;;;;;11.10;99.90;;;;;;4996679;28;20372;-76
2022/07/07 13:30:44;;;;;;;;;;;11.20;99.90;;;;;;4996823;28;19978;-75
2022/07/07 13:33:10;;;;;;;;;;;11.20;99.90;;;;;;4996540;28;20292;-75
2022/07/07 13:35:37;;;;;;;;;;;11.20;99.90;;;;;;4996597;28;20372;-75
2022/07/07 13:38:04;;;;;;;;;;;11.20;99.90;;;;;;4996503;28;20261;-76
2022/07/07 13:40:30;;;;;;;;;;;11.20;99.90;;;;;;4996559;28;20062;-75
2022/07/07 13:42:57;;;;;;;;;;;11.20;99.90;;;;;;4995436;28;19913;-75
2022/07/07 13:45:24;;;;;;;;;;;11.30;99.90;;;;;;4996454;28;19932;-76
2022/07/07 13:47:51;;;;;;;;;;;11.30;99.90;;;;;;4996353;28;19925;-76
2022/07/07 13:50:17;;;;;;;;;;;11.20;99.90;;;;;;4996519;28;19917;-74
2022/07/07 13:52:44;;;;;;;;;;;11.10;99.90;;;;;;4996332;28;19987;-75
2022/07/07 13:55:11;;;;;;;;;;;11.10;99.90;;;;;;4996137;28;19941;-75
2022/07/07 13:57:37;;;;;;;;;;;11.20;99.90;;;;;;4996264;28;19910;-75
2022/07/07 14:00:05;;;;;;;;;;;11.20;99.90;;;;;;4996173;28;19914;-75
2022/07/07 14:02:32;;;;;;;;;;;11.20;99.90;;;;;;4996230;28;19910;-74
2022/07/07 14:04:59;;;;;;;;;;;11.20;99.90;;;;;;4995878;28;19932;-75
2022/07/07 14:07:25;;;;;;;;;;;11.30;99.90;;;;;;4995996;28;20283;-74
2022/07/07 14:09:52;;;;;;;;;;;11.30;99.90;;;;;;4995950;28;19910;-74
2022/07/07 14:12:19;;;;;;;;;;;11.30;99.90;;;;;;4995871;28;20360;-74
2022/07/07 14:14:45;;;;;;;;;;;11.30;99.90;;;;;;4995850;28;19910;-74
2022/07/07 14:17:12;;;;;;;;;;;11.30;99.90;;;;;;4995784;28;20039;-74
2022/07/07 14:19:39;;;;;;;;;;;11.30;99.90;;;;;;4995670;28;19913;-75
2022/07/07 14:22:06;;;;;;;;;;;11.30;99.90;;;;;;4995883;28;20244;-74
2022/07/07 14:24:36;;;;;;;;;;;11.40;99.90;;;;;;4995727;28;19916;-74